sensor_id;sensor_type;location;lat;lon;timestamp;P1;durP1;ratioP1;P2;durP2;ratioP2
53714;SDS011;39608;55.630;37.864;2024-01-15T00:03:00;14.75;;;7.15;;
53714;SDS011;39608;55.630;37.864;2024-01-15T00:08:03;17.05;;;7.22;;
53714;SDS011;39608;55.630;37.864;2024-01-15T00:13:05;13.15;;;6.50;;
53714;SDS011;39608;55.630;37.864;2024-01-15T00:23:19;14.27;;;5.82;;
53714;SDS011;39608;55.630;37.864;2024-01-15T00:28:21;10.23;;;6.38;;
53714;SDS011;39608;55.630;37.864;2024-01-15T00:33:25;15.95;;;6.78;;
53714;SDS011;39608;55.630;37.864;2024-01-15T00:38:28;12.38;;;5.75;;
53714;SDS011;39608;55.630;37.864;2024-01-15T00:43:29;11.93;;;7.60;;
53714;SDS011;39608;55.630;37.864;2024-01-15T00:48:33;15.80;;;6.22;;
53714;SDS011;39608;55.630;37.864;2024-01-15T00:53:35;13.65;;;5.75;;
53714;SDS011;39608;55.630;37.864;2024-01-15T00:58:37;6.32;;;3.75;;
53714;SDS011;39608;55.630;37.864;2024-01-15T01:03:41;10.57;;;5.35;;
53714;SDS011;39608;55.630;37.864;2024-01-15T01:08:43;15.98;;;8.90;;
53714;SDS011;39608;55.630;37.864;2024-01-15T01:13:45;7.30;;;4.28;;
53714;SDS011;39608;55.630;37.864;2024-01-15T01:18:49;15.00;;;6.20;;
53714;SDS011;39608;55.630;37.864;2024-01-15T01:23:51;9.30;;;4.95;;
53714;SDS011;39608;55.630;37.864;2024-01-15T01:28:53;13.65;;;6.82;;
53714;SDS011;39608;55.630;37.864;2024-01-15T01:33:56;18.15;;;8.25;;
53714;SDS011;39608;55.630;37.864;2024-01-15T01:39:01;16.80;;;8.02;;
53714;SDS011;39608;55.630;37.864;2024-01-15T01:44:03;13.38;;;7.32;;
53714;SDS011;39608;55.630;37.864;2024-01-15T01:49:14;10.00;;;6.72;;
53714;SDS011;39608;55.630;37.864;2024-01-15T01:54:20;14.93;;;8.32;;
53714;SDS011;39608;55.630;37.864;2024-01-15T01:59:22;8.82;;;5.57;;
53714;SDS011;39608;55.630;37.864;2024-01-15T02:04:26;9.65;;;6.40;;
53714;SDS011;39608;55.630;37.864;2024-01-15T02:09:29;23.20;;;8.68;;
53714;SDS011;39608;55.630;37.864;2024-01-15T02:14:32;14.20;;;7.07;;
53714;SDS011;39608;55.630;37.864;2024-01-15T02:19:36;14.57;;;7.63;;
53714;SDS011;39608;55.630;37.864;2024-01-15T02:24:41;18.67;;;9.38;;
53714;SDS011;39608;55.630;37.864;2024-01-15T02:29:53;19.80;;;10.63;;
53714;SDS011;39608;55.630;37.864;2024-01-15T02:34:56;16.08;;;8.27;;
53714;SDS011;39608;55.630;37.864;2024-01-15T02:40:02;19.35;;;9.95;;
53714;SDS011;39608;55.630;37.864;2024-01-15T02:45:10;17.13;;;7.68;;
53714;SDS011;39608;55.630;37.864;2024-01-15T02:50:12;16.33;;;9.43;;
53714;SDS011;39608;55.630;37.864;2024-01-15T02:55:15;21.73;;;10.23;;
53714;SDS011;39608;55.630;37.864;2024-01-15T03:00:19;14.57;;;8.38;;
53714;SDS011;39608;55.630;37.864;2024-01-15T03:05:21;19.35;;;10.88;;
53714;SDS011;39608;55.630;37.864;2024-01-15T03:10:25;17.50;;;10.30;;
53714;SDS011;39608;55.630;37.864;2024-01-15T03:15:27;18.60;;;10.25;;
53714;SDS011;39608;55.630;37.864;2024-01-15T03:20:30;23.80;;;12.00;;
53714;SDS011;39608;55.630;37.864;2024-01-15T03:25:33;15.88;;;9.52;;
53714;SDS011;39608;55.630;37.864;2024-01-15T03:30:35;18.83;;;10.88;;
53714;SDS011;39608;55.630;37.864;2024-01-15T03:35:37;18.70;;;10.93;;
53714;SDS011;39608;55.630;37.864;2024-01-15T03:40:48;14.10;;;8.25;;
53714;SDS011;39608;55.630;37.864;2024-01-15T03:45:50;22.23;;;9.18;;
53714;SDS011;39608;55.630;37.864;2024-01-15T03:50:52;16.88;;;9.93;;
53714;SDS011;39608;55.630;37.864;2024-01-15T03:55:55;21.17;;;12.15;;
53714;SDS011;39608;55.630;37.864;2024-01-15T04:00:58;21.60;;;11.65;;
53714;SDS011;39608;55.630;37.864;2024-01-15T04:06:00;20.10;;;11.27;;
53714;SDS011;39608;55.630;37.864;2024-01-15T04:11:04;23.65;;;11.52;;
53714;SDS011;39608;55.630;37.864;2024-01-15T04:16:11;17.45;;;10.02;;
53714;SDS011;39608;55.630;37.864;2024-01-15T04:21:13;13.65;;;7.90;;
53714;SDS011;39608;55.630;37.864;2024-01-15T04:26:16;19.42;;;11.48;;
53714;SDS011;39608;55.630;37.864;2024-01-15T04:31:22;17.73;;;11.05;;
53714;SDS011;39608;55.630;37.864;2024-01-15T04:36:24;17.60;;;9.70;;
53714;SDS011;39608;55.630;37.864;2024-01-15T04:41:28;9.23;;;6.32;;
53714;SDS011;39608;55.630;37.864;2024-01-15T04:46:30;8.85;;;6.43;;
53714;SDS011;39608;55.630;37.864;2024-01-15T04:51:32;19.00;;;11.52;;
53714;SDS011;39608;55.630;37.864;2024-01-15T04:56:37;20.98;;;11.13;;
53714;SDS011;39608;55.630;37.864;2024-01-15T05:01:39;20.10;;;11.52;;
53714;SDS011;39608;55.630;37.864;2024-01-15T05:06:41;18.13;;;10.90;;
53714;SDS011;39608;55.630;37.864;2024-01-15T05:11:54;23.13;;;12.75;;
53714;SDS011;39608;55.630;37.864;2024-01-15T05:16:56;22.20;;;13.52;;
53714;SDS011;39608;55.630;37.864;2024-01-15T05:21:58;17.15;;;10.45;;
53714;SDS011;39608;55.630;37.864;2024-01-15T05:27:01;27.13;;;14.40;;
53714;SDS011;39608;55.630;37.864;2024-01-15T05:32:03;22.55;;;12.55;;
53714;SDS011;39608;55.630;37.864;2024-01-15T05:37:05;20.00;;;10.15;;
53714;SDS011;39608;55.630;37.864;2024-01-15T05:42:11;20.63;;;11.73;;
53714;SDS011;39608;55.630;37.864;2024-01-15T05:47:14;16.00;;;10.30;;
53714;SDS011;39608;55.630;37.864;2024-01-15T05:52:16;19.95;;;12.35;;
53714;SDS011;39608;55.630;37.864;2024-01-15T05:57:20;19.75;;;12.50;;
53714;SDS011;39608;55.630;37.864;2024-01-15T06:02:24;18.67;;;10.45;;
53714;SDS011;39608;55.630;37.864;2024-01-15T06:07:29;17.85;;;9.80;;
53714;SDS011;39608;55.630;37.864;2024-01-15T06:12:32;21.00;;;11.90;;
53714;SDS011;39608;55.630;37.864;2024-01-15T06:17:34;18.70;;;11.55;;
53714;SDS011;39608;55.630;37.864;2024-01-15T06:22:49;20.70;;;11.07;;
53714;SDS011;39608;55.630;37.864;2024-01-15T06:27:54;24.05;;;13.40;;
53714;SDS011;39608;55.630;37.864;2024-01-15T06:32:57;25.92;;;14.07;;
53714;SDS011;39608;55.630;37.864;2024-01-15T06:37:59;18.33;;;11.30;;
53714;SDS011;39608;55.630;37.864;2024-01-15T06:43:02;25.88;;;14.95;;
53714;SDS011;39608;55.630;37.864;2024-01-15T06:58:42;25.88;;;15.32;;
53714;SDS011;39608;55.630;37.864;2024-01-15T07:03:44;24.55;;;14.77;;
53714;SDS011;39608;55.630;37.864;2024-01-15T07:08:48;26.10;;;13.88;;
53714;SDS011;39608;55.630;37.864;2024-01-15T07:13:52;17.92;;;10.98;;
53714;SDS011;39608;55.630;37.864;2024-01-15T07:29:36;18.42;;;11.02;;
53714;SDS011;39608;55.630;37.864;2024-01-15T07:39:51;23.70;;;14.73;;
53714;SDS011;39608;55.630;37.864;2024-01-15T07:44:54;19.88;;;12.85;;
53714;SDS011;39608;55.630;37.864;2024-01-15T07:49:56;17.85;;;11.95;;
53714;SDS011;39608;55.630;37.864;2024-01-15T07:55:00;18.52;;;11.77;;
53714;SDS011;39608;55.630;37.864;2024-01-15T08:00:06;15.60;;;9.95;;
53714;SDS011;39608;55.630;37.864;2024-01-15T08:05:09;20.88;;;12.63;;
53714;SDS011;39608;55.630;37.864;2024-01-15T08:10:11;20.20;;;12.30;;
53714;SDS011;39608;55.630;37.864;2024-01-15T08:15:15;25.70;;;15.57;;
53714;SDS011;39608;55.630;37.864;2024-01-15T08:20:17;15.30;;;9.63;;
53714;SDS011;39608;55.630;37.864;2024-01-15T08:25:19;26.85;;;16.45;;
53714;SDS011;39608;55.630;37.864;2024-01-15T08:30:23;27.20;;;16.17;;
53714;SDS011;39608;55.630;37.864;2024-01-15T08:35:27;25.88;;;17.27;;
53714;SDS011;39608;55.630;37.864;2024-01-15T08:40:29;17.88;;;9.93;;
53714;SDS011;39608;55.630;37.864;2024-01-15T08:50:49;19.53;;;9.67;;
53714;SDS011;39608;55.630;37.864;2024-01-15T08:55:52;18.17;;;9.68;;
53714;SDS011;39608;55.630;37.864;2024-01-15T09:00:57;22.30;;;13.65;;
53714;SDS011;39608;55.630;37.864;2024-01-15T09:06:01;18.40;;;11.18;;
53714;SDS011;39608;55.630;37.864;2024-01-15T09:11:04;20.85;;;13.65;;
53714;SDS011;39608;55.630;37.864;2024-01-15T09:16:07;26.08;;;14.55;;
53714;SDS011;39608;55.630;37.864;2024-01-15T09:21:10;18.65;;;12.30;;
53714;SDS011;39608;55.630;37.864;2024-01-15T09:26:12;16.38;;;9.52;;
53714;SDS011;39608;55.630;37.864;2024-01-15T09:31:15;18.67;;;12.35;;
53714;SDS011;39608;55.630;37.864;2024-01-15T09:36:21;22.25;;;14.35;;
53714;SDS011;39608;55.630;37.864;2024-01-15T09:41:24;18.88;;;12.25;;
53714;SDS011;39608;55.630;37.864;2024-01-15T09:46:26;21.30;;;12.45;;
53714;SDS011;39608;55.630;37.864;2024-01-15T09:51:30;18.95;;;11.82;;
53714;SDS011;39608;55.630;37.864;2024-01-15T09:56:33;24.58;;;12.02;;
53714;SDS011;39608;55.630;37.864;2024-01-15T10:01:35;13.52;;;9.38;;
53714;SDS011;39608;55.630;37.864;2024-01-15T10:06:41;18.88;;;11.20;;
53714;SDS011;39608;55.630;37.864;2024-01-15T10:11:48;17.05;;;11.10;;
53714;SDS011;39608;55.630;37.864;2024-01-15T10:16:50;18.50;;;9.85;;
53714;SDS011;39608;55.630;37.864;2024-01-15T10:21:58;20.85;;;11.38;;
53714;SDS011;39608;55.630;37.864;2024-01-15T10:32:17;18.70;;;10.82;;
53714;SDS011;39608;55.630;37.864;2024-01-15T10:42:41;23.63;;;12.73;;
53714;SDS011;39608;55.630;37.864;2024-01-15T10:47:52;16.55;;;11.25;;
53714;SDS011;39608;55.630;37.864;2024-01-15T10:52:59;14.17;;;10.47;;
53714;SDS011;39608;55.630;37.864;2024-01-15T10:58:03;16.75;;;11.70;;
53714;SDS011;39608;55.630;37.864;2024-01-15T11:08:29;16.40;;;10.90;;
53714;SDS011;39608;55.630;37.864;2024-01-15T11:13:40;20.55;;;11.98;;
53714;SDS011;39608;55.630;37.864;2024-01-15T11:24:03;23.20;;;11.88;;
53714;SDS011;39608;55.630;37.864;2024-01-15T11:29:10;17.42;;;9.32;;
53714;SDS011;39608;55.630;37.864;2024-01-15T11:39:55;19.00;;;12.05;;
53714;SDS011;39608;55.630;37.864;2024-01-15T11:45:06;20.08;;;12.40;;
53714;SDS011;39608;55.630;37.864;2024-01-15T11:50:08;17.40;;;11.63;;
53714;SDS011;39608;55.630;37.864;2024-01-15T11:55:12;15.98;;;10.77;;
53714;SDS011;39608;55.630;37.864;2024-01-15T12:00:22;19.40;;;12.30;;
53714;SDS011;39608;55.630;37.864;2024-01-15T12:10:40;23.45;;;12.23;;
53714;SDS011;39608;55.630;37.864;2024-01-15T12:15:47;20.40;;;13.23;;
53714;SDS011;39608;55.630;37.864;2024-01-15T12:20:49;14.80;;;9.02;;
53714;SDS011;39608;55.630;37.864;2024-01-15T12:25:52;13.55;;;8.50;;
53714;SDS011;39608;55.630;37.864;2024-01-15T12:30:55;16.02;;;9.38;;
53714;SDS011;39608;55.630;37.864;2024-01-15T12:36:14;17.15;;;11.52;;
53714;SDS011;39608;55.630;37.864;2024-01-15T12:46:37;19.08;;;10.90;;
53714;SDS011;39608;55.630;37.864;2024-01-15T12:51:39;19.40;;;11.02;;
53714;SDS011;39608;55.630;37.864;2024-01-15T12:56:41;21.23;;;13.25;;
53714;SDS011;39608;55.630;37.864;2024-01-15T13:01:45;19.40;;;11.65;;
53714;SDS011;39608;55.630;37.864;2024-01-15T13:06:48;21.08;;;14.23;;
53714;SDS011;39608;55.630;37.864;2024-01-15T13:11:50;21.13;;;10.85;;
53714;SDS011;39608;55.630;37.864;2024-01-15T13:22:16;21.70;;;13.93;;
53714;SDS011;39608;55.630;37.864;2024-01-15T13:27:18;20.25;;;11.18;;
53714;SDS011;39608;55.630;37.864;2024-01-15T13:32:25;19.30;;;11.48;;
53714;SDS011;39608;55.630;37.864;2024-01-15T13:37:29;20.42;;;11.73;;
53714;SDS011;39608;55.630;37.864;2024-01-15T13:42:31;21.48;;;14.00;;
53714;SDS011;39608;55.630;37.864;2024-01-15T13:47:33;24.98;;;15.38;;
53714;SDS011;39608;55.630;37.864;2024-01-15T13:57:51;23.30;;;14.88;;
53714;SDS011;39608;55.630;37.864;2024-01-15T14:02:53;22.38;;;12.95;;
53714;SDS011;39608;55.630;37.864;2024-01-15T14:07:58;23.20;;;14.73;;
53714;SDS011;39608;55.630;37.864;2024-01-15T14:13:02;25.98;;;14.75;;
53714;SDS011;39608;55.630;37.864;2024-01-15T14:18:04;21.98;;;15.25;;
53714;SDS011;39608;55.630;37.864;2024-01-15T14:23:06;27.05;;;16.90;;
53714;SDS011;39608;55.630;37.864;2024-01-15T14:28:10;21.98;;;13.23;;
53714;SDS011;39608;55.630;37.864;2024-01-15T14:33:12;26.20;;;16.67;;
53714;SDS011;39608;55.630;37.864;2024-01-15T14:38:14;24.23;;;14.93;;
53714;SDS011;39608;55.630;37.864;2024-01-15T14:43:22;23.27;;;14.47;;
53714;SDS011;39608;55.630;37.864;2024-01-15T14:48:24;25.58;;;15.00;;
53714;SDS011;39608;55.630;37.864;2024-01-15T14:53:26;24.08;;;15.95;;
53714;SDS011;39608;55.630;37.864;2024-01-15T15:03:32;28.08;;;16.48;;
53714;SDS011;39608;55.630;37.864;2024-01-15T15:08:34;27.98;;;15.93;;
53714;SDS011;39608;55.630;37.864;2024-01-15T15:13:36;16.27;;;11.27;;
53714;SDS011;39608;55.630;37.864;2024-01-15T15:18:40;26.30;;;14.88;;
53714;SDS011;39608;55.630;37.864;2024-01-15T15:23:43;21.95;;;12.10;;
53714;SDS011;39608;55.630;37.864;2024-01-15T15:28:47;23.45;;;15.57;;
53714;SDS011;39608;55.630;37.864;2024-01-15T15:38:59;18.10;;;11.60;;
53714;SDS011;39608;55.630;37.864;2024-01-15T15:44:01;23.83;;;14.27;;
53714;SDS011;39608;55.630;37.864;2024-01-15T15:49:05;21.60;;;12.98;;
53714;SDS011;39608;55.630;37.864;2024-01-15T15:54:07;19.75;;;10.48;;
53714;SDS011;39608;55.630;37.864;2024-01-15T15:59:09;29.33;;;17.13;;
53714;SDS011;39608;55.630;37.864;2024-01-15T16:04:12;26.42;;;16.58;;
53714;SDS011;39608;55.630;37.864;2024-01-15T16:09:15;27.20;;;17.52;;
53714;SDS011;39608;55.630;37.864;2024-01-15T16:14:30;25.73;;;15.45;;
53714;SDS011;39608;55.630;37.864;2024-01-15T16:19:33;22.55;;;12.98;;
53714;SDS011;39608;55.630;37.864;2024-01-15T16:24:35;18.30;;;10.95;;
53714;SDS011;39608;55.630;37.864;2024-01-15T16:29:37;19.65;;;12.70;;
53714;SDS011;39608;55.630;37.864;2024-01-15T16:34:41;18.50;;;12.20;;
53714;SDS011;39608;55.630;37.864;2024-01-15T16:39:47;22.00;;;14.25;;
53714;SDS011;39608;55.630;37.864;2024-01-15T16:44:49;30.45;;;18.30;;
53714;SDS011;39608;55.630;37.864;2024-01-15T16:49:52;31.30;;;18.23;;
53714;SDS011;39608;55.630;37.864;2024-01-15T16:54:55;29.10;;;15.65;;
53714;SDS011;39608;55.630;37.864;2024-01-15T16:59:57;29.63;;;17.23;;
53714;SDS011;39608;55.630;37.864;2024-01-15T17:05:00;29.70;;;19.90;;
53714;SDS011;39608;55.630;37.864;2024-01-15T17:10:03;25.92;;;15.73;;
53714;SDS011;39608;55.630;37.864;2024-01-15T17:15:08;21.00;;;14.02;;
53714;SDS011;39608;55.630;37.864;2024-01-15T17:20:12;30.75;;;18.10;;
53714;SDS011;39608;55.630;37.864;2024-01-15T17:25:14;28.40;;;17.35;;
53714;SDS011;39608;55.630;37.864;2024-01-15T17:30:16;27.85;;;13.57;;
53714;SDS011;39608;55.630;37.864;2024-01-15T17:40:30;17.10;;;10.70;;
53714;SDS011;39608;55.630;37.864;2024-01-15T17:45:37;25.45;;;16.05;;
53714;SDS011;39608;55.630;37.864;2024-01-15T17:50:41;25.20;;;14.53;;
53714;SDS011;39608;55.630;37.864;2024-01-15T17:55:43;22.75;;;12.60;;
53714;SDS011;39608;55.630;37.864;2024-01-15T18:00:45;31.33;;;18.95;;
53714;SDS011;39608;55.630;37.864;2024-01-15T18:05:49;24.38;;;15.85;;
53714;SDS011;39608;55.630;37.864;2024-01-15T18:10:51;27.25;;;17.92;;
53714;SDS011;39608;55.630;37.864;2024-01-15T18:15:55;29.88;;;17.90;;
53714;SDS011;39608;55.630;37.864;2024-01-15T18:20:59;18.67;;;11.88;;
53714;SDS011;39608;55.630;37.864;2024-01-15T18:26:04;25.63;;;15.63;;
53714;SDS011;39608;55.630;37.864;2024-01-15T18:31:06;31.38;;;18.67;;
53714;SDS011;39608;55.630;37.864;2024-01-15T18:36:10;26.45;;;16.80;;
53714;SDS011;39608;55.630;37.864;2024-01-15T18:41:19;24.60;;;13.02;;
53714;SDS011;39608;55.630;37.864;2024-01-15T18:46:21;28.27;;;16.98;;
53714;SDS011;39608;55.630;37.864;2024-01-15T18:51:27;24.67;;;14.55;;
53714;SDS011;39608;55.630;37.864;2024-01-15T18:56:29;30.48;;;17.63;;
53714;SDS011;39608;55.630;37.864;2024-01-15T19:06:46;27.45;;;17.77;;
53714;SDS011;39608;55.630;37.864;2024-01-15T19:11:52;30.17;;;17.15;;
53714;SDS011;39608;55.630;37.864;2024-01-15T19:16:54;29.55;;;16.63;;
53714;SDS011;39608;55.630;37.864;2024-01-15T19:22:00;24.17;;;14.95;;
53714;SDS011;39608;55.630;37.864;2024-01-15T19:27:02;28.60;;;16.20;;
53714;SDS011;39608;55.630;37.864;2024-01-15T19:37:18;28.13;;;16.80;;
53714;SDS011;39608;55.630;37.864;2024-01-15T19:42:21;24.30;;;14.07;;
53714;SDS011;39608;55.630;37.864;2024-01-15T19:47:23;26.50;;;16.77;;
53714;SDS011;39608;55.630;37.864;2024-01-15T19:52:26;28.23;;;17.27;;
53714;SDS011;39608;55.630;37.864;2024-01-15T19:57:29;27.30;;;16.73;;
53714;SDS011;39608;55.630;37.864;2024-01-15T20:02:31;22.33;;;11.88;;
53714;SDS011;39608;55.630;37.864;2024-01-15T20:07:41;29.15;;;18.17;;
53714;SDS011;39608;55.630;37.864;2024-01-15T20:12:45;28.23;;;16.52;;
53714;SDS011;39608;55.630;37.864;2024-01-15T20:23:33;26.98;;;16.65;;
53714;SDS011;39608;55.630;37.864;2024-01-15T20:28:38;21.35;;;14.07;;
53714;SDS011;39608;55.630;37.864;2024-01-15T20:33:40;25.98;;;16.85;;
53714;SDS011;39608;55.630;37.864;2024-01-15T20:43:56;23.17;;;13.85;;
53714;SDS011;39608;55.630;37.864;2024-01-15T20:48:58;24.25;;;15.15;;
53714;SDS011;39608;55.630;37.864;2024-01-15T20:54:02;30.65;;;19.42;;
53714;SDS011;39608;55.630;37.864;2024-01-15T20:59:05;29.00;;;18.60;;
53714;SDS011;39608;55.630;37.864;2024-01-15T21:04:07;30.67;;;18.50;;
53714;SDS011;39608;55.630;37.864;2024-01-15T21:09:13;32.50;;;16.20;;
53714;SDS011;39608;55.630;37.864;2024-01-15T21:19:28;33.67;;;21.95;;
53714;SDS011;39608;55.630;37.864;2024-01-15T21:24:32;31.40;;;18.70;;
53714;SDS011;39608;55.630;37.864;2024-01-15T21:29:34;27.92;;;16.98;;
53714;SDS011;39608;55.630;37.864;2024-01-15T21:34:37;27.25;;;17.98;;
53714;SDS011;39608;55.630;37.864;2024-01-15T21:39:40;28.38;;;16.77;;
53714;SDS011;39608;55.630;37.864;2024-01-15T21:44:43;26.63;;;15.27;;
53714;SDS011;39608;55.630;37.864;2024-01-15T21:49:45;22.60;;;13.45;;
53714;SDS011;39608;55.630;37.864;2024-01-15T21:54:48;17.33;;;9.38;;
53714;SDS011;39608;55.630;37.864;2024-01-15T21:59:50;19.67;;;13.48;;
53714;SDS011;39608;55.630;37.864;2024-01-15T22:04:52;22.67;;;13.68;;
53714;SDS011;39608;55.630;37.864;2024-01-15T22:09:55;26.70;;;16.40;;
53714;SDS011;39608;55.630;37.864;2024-01-15T22:14:57;27.27;;;16.33;;
53714;SDS011;39608;55.630;37.864;2024-01-15T22:19:59;19.25;;;12.93;;
53714;SDS011;39608;55.630;37.864;2024-01-15T22:25:04;24.88;;;15.70;;
53714;SDS011;39608;55.630;37.864;2024-01-15T22:30:09;16.42;;;10.15;;
53714;SDS011;39608;55.630;37.864;2024-01-15T22:35:12;18.85;;;12.93;;
53714;SDS011;39608;55.630;37.864;2024-01-15T22:40:15;25.10;;;14.65;;
53714;SDS011;39608;55.630;37.864;2024-01-15T22:45:18;16.45;;;10.40;;
53714;SDS011;39608;55.630;37.864;2024-01-15T22:50:20;14.50;;;10.40;;
53714;SDS011;39608;55.630;37.864;2024-01-15T22:55:24;20.52;;;13.15;;
53714;SDS011;39608;55.630;37.864;2024-01-15T23:00:26;17.80;;;11.80;;
53714;SDS011;39608;55.630;37.864;2024-01-15T23:05:32;14.20;;;8.83;;
53714;SDS011;39608;55.630;37.864;2024-01-15T23:10:36;24.27;;;13.93;;
53714;SDS011;39608;55.630;37.864;2024-01-15T23:15:38;15.15;;;9.10;;
53714;SDS011;39608;55.630;37.864;2024-01-15T23:20:43;18.23;;;10.48;;
53714;SDS011;39608;55.630;37.864;2024-01-15T23:25:46;17.77;;;8.73;;
53714;SDS011;39608;55.630;37.864;2024-01-15T23:30:48;14.75;;;10.55;;
53714;SDS011;39608;55.630;37.864;2024-01-15T23:35:53;13.25;;;7.88;;
53714;SDS011;39608;55.630;37.864;2024-01-15T23:40:56;18.00;;;12.25;;
53714;SDS011;39608;55.630;37.864;2024-01-15T23:45:59;16.90;;;11.00;;
53714;SDS011;39608;55.630;37.864;2024-01-15T23:51:01;16.80;;;10.82;;
53714;SDS011;39608;55.630;37.864;2024-01-15T23:56:20;14.00;;;9.15;;
